sensor_id;sensor_type;location;lat;lon;timestamp;temperature;humidity
6293;DHT22;3179;54.350;10.102;2024-01-25T00:01:29;9.20;99.90
6293;DHT22;3179;54.350;10.102;2024-01-25T00:03:56;9.20;99.90
6293;DHT22;3179;54.350;10.102;2024-01-25T00:06:24;9.20;99.90
6293;DHT22;3179;54.350;10.102;2024-01-25T00:08:52;9.20;99.90
6293;DHT22;3179;54.350;10.102;2024-01-25T00:11:19;9.20;99.90
6293;DHT22;3179;54.350;10.102;2024-01-25T00:13:45;9.20;99.90
6293;DHT22;3179;54.350;10.102;2024-01-25T00:16:13;9.20;99.90
6293;DHT22;3179;54.350;10.102;2024-01-25T00:18:39;9.20;99.90
6293;DHT22;3179;54.350;10.102;2024-01-25T00:21:06;9.20;99.90
6293;DHT22;3179;54.350;10.102;2024-01-25T00:23:34;9.20;99.90
6293;DHT22;3179;54.350;10.102;2024-01-25T00:26:01;9.20;99.90
6293;DHT22;3179;54.350;10.102;2024-01-25T00:28:28;9.10;99.90
6293;DHT22;3179;54.350;10.102;2024-01-25T00:30:55;9.10;99.90
6293;DHT22;3179;54.350;10.102;2024-01-25T00:33:22;9.10;99.90
6293;DHT22;3179;54.350;10.102;2024-01-25T00:35:49;9.10;99.90
6293;DHT22;3179;54.350;10.102;2024-01-25T00:38:16;9.20;99.90
6293;DHT22;3179;54.350;10.102;2024-01-25T00:40:45;9.20;99.90
6293;DHT22;3179;54.350;10.102;2024-01-25T00:43:13;9.20;99.90
6293;DHT22;3179;54.350;10.102;2024-01-25T00:45:40;9.20;99.90
6293;DHT22;3179;54.350;10.102;2024-01-25T00:48:09;9.20;99.90
6293;DHT22;3179;54.350;10.102;2024-01-25T00:50:37;9.20;99.90
6293;DHT22;3179;54.350;10.102;2024-01-25T00:53:04;9.20;99.90
6293;DHT22;3179;54.350;10.102;2024-01-25T00:55:32;9.20;99.90
6293;DHT22;3179;54.350;10.102;2024-01-25T00:58:01;9.20;99.90
6293;DHT22;3179;54.350;10.102;2024-01-25T01:00:28;9.20;99.90
6293;DHT22;3179;54.350;10.102;2024-01-25T01:02:57;9.20;99.90
6293;DHT22;3179;54.350;10.102;2024-01-25T01:05:25;9.20;99.90
6293;DHT22;3179;54.350;10.102;2024-01-25T01:07:52;9.20;99.90
6293;DHT22;3179;54.350;10.102;2024-01-25T01:10:19;9.20;99.90
6293;DHT22;3179;54.350;10.102;2024-01-25T01:12:46;9.20;99.90
6293;DHT22;3179;54.350;10.102;2024-01-25T01:15:14;9.10;99.90
6293;DHT22;3179;54.350;10.102;2024-01-25T01:17:41;9.20;99.90
6293;DHT22;3179;54.350;10.102;2024-01-25T01:20:09;9.20;99.90
6293;DHT22;3179;54.350;10.102;2024-01-25T01:22:36;9.10;99.90
6293;DHT22;3179;54.350;10.102;2024-01-25T01:25:03;9.10;99.90
6293;DHT22;3179;54.350;10.102;2024-01-25T01:27:30;9.20;99.90
6293;DHT22;3179;54.350;10.102;2024-01-25T01:29:57;9.10;99.90
6293;DHT22;3179;54.350;10.102;2024-01-25T01:32:25;9.10;99.90
6293;DHT22;3179;54.350;10.102;2024-01-25T01:34:52;9.10;99.90
6293;DHT22;3179;54.350;10.102;2024-01-25T01:37:19;9.20;99.90
6293;DHT22;3179;54.350;10.102;2024-01-25T01:39:46;9.20;99.90
6293;DHT22;3179;54.350;10.102;2024-01-25T01:42:12;9.10;99.90
6293;DHT22;3179;54.350;10.102;2024-01-25T01:44:39;9.10;99.90
6293;DHT22;3179;54.350;10.102;2024-01-25T01:47:07;9.10;99.90
6293;DHT22;3179;54.350;10.102;2024-01-25T01:49:35;9.10;99.90
6293;DHT22;3179;54.350;10.102;2024-01-25T01:52:03;9.10;99.90
6293;DHT22;3179;54.350;10.102;2024-01-25T01:54:30;9.10;99.90
6293;DHT22;3179;54.350;10.102;2024-01-25T01:56:57;9.10;99.90
6293;DHT22;3179;54.350;10.102;2024-01-25T01:59:25;9.10;99.90
6293;DHT22;3179;54.350;10.102;2024-01-25T02:01:52;9.20;99.90
6293;DHT22;3179;54.350;10.102;2024-01-25T02:04:19;9.20;99.90
6293;DHT22;3179;54.350;10.102;2024-01-25T02:06:47;9.10;99.90
6293;DHT22;3179;54.350;10.102;2024-01-25T02:09:14;9.10;99.90
6293;DHT22;3179;54.350;10.102;2024-01-25T02:11:41;9.10;99.90
6293;DHT22;3179;54.350;10.102;2024-01-25T02:14:08;9.20;99.90
6293;DHT22;3179;54.350;10.102;2024-01-25T02:16:37;9.20;99.90
6293;DHT22;3179;54.350;10.102;2024-01-25T02:19:04;9.20;99.90
6293;DHT22;3179;54.350;10.102;2024-01-25T02:21:31;9.20;99.90
6293;DHT22;3179;54.350;10.102;2024-01-25T02:23:59;9.10;99.90
6293;DHT22;3179;54.350;10.102;2024-01-25T02:26:26;9.10;99.90
6293;DHT22;3179;54.350;10.102;2024-01-25T02:28:53;9.20;99.90
6293;DHT22;3179;54.350;10.102;2024-01-25T02:31:19;9.10;99.90
6293;DHT22;3179;54.350;10.102;2024-01-25T02:33:46;9.10;99.90
6293;DHT22;3179;54.350;10.102;2024-01-25T02:36:13;9.10;99.90
6293;DHT22;3179;54.350;10.102;2024-01-25T02:38:40;9.10;99.90
6293;DHT22;3179;54.350;10.102;2024-01-25T02:41:08;9.10;99.90
6293;DHT22;3179;54.350;10.102;2024-01-25T02:43:35;9.10;99.90
6293;DHT22;3179;54.350;10.102;2024-01-25T02:46:02;9.10;99.90
6293;DHT22;3179;54.350;10.102;2024-01-25T02:48:32;9.10;99.90
6293;DHT22;3179;54.350;10.102;2024-01-25T02:50:59;9.10;99.90
6293;DHT22;3179;54.350;10.102;2024-01-25T02:53:26;9.00;99.90
6293;DHT22;3179;54.350;10.102;2024-01-25T02:55:52;9.00;99.90
6293;DHT22;3179;54.350;10.102;2024-01-25T02:58:21;9.00;99.90
6293;DHT22;3179;54.350;10.102;2024-01-25T03:00:48;9.10;99.90
6293;DHT22;3179;54.350;10.102;2024-01-25T03:03:21;9.00;99.90
6293;DHT22;3179;54.350;10.102;2024-01-25T03:05:49;9.10;99.90
6293;DHT22;3179;54.350;10.102;2024-01-25T03:08:16;9.10;99.90
6293;DHT22;3179;54.350;10.102;2024-01-25T03:10:42;9.10;99.90
6293;DHT22;3179;54.350;10.102;2024-01-25T03:13:09;9.10;99.90
6293;DHT22;3179;54.350;10.102;2024-01-25T03:15:37;9.10;99.90
6293;DHT22;3179;54.350;10.102;2024-01-25T03:18:05;9.00;99.90
6293;DHT22;3179;54.350;10.102;2024-01-25T03:20:32;9.10;99.90
6293;DHT22;3179;54.350;10.102;2024-01-25T03:22:59;9.10;99.90
6293;DHT22;3179;54.350;10.102;2024-01-25T03:25:25;9.10;99.90
6293;DHT22;3179;54.350;10.102;2024-01-25T03:27:52;9.20;99.90
6293;DHT22;3179;54.350;10.102;2024-01-25T03:30:19;9.10;99.90
6293;DHT22;3179;54.350;10.102;2024-01-25T03:32:47;9.10;99.90
6293;DHT22;3179;54.350;10.102;2024-01-25T03:35:14;9.10;99.90
6293;DHT22;3179;54.350;10.102;2024-01-25T03:37:41;9.10;99.90
6293;DHT22;3179;54.350;10.102;2024-01-25T03:40:08;9.10;99.90
6293;DHT22;3179;54.350;10.102;2024-01-25T03:42:35;9.10;99.90
6293;DHT22;3179;54.350;10.102;2024-01-25T03:45:03;9.10;99.90
6293;DHT22;3179;54.350;10.102;2024-01-25T03:47:30;9.10;99.90
6293;DHT22;3179;54.350;10.102;2024-01-25T03:49:58;9.10;99.90
6293;DHT22;3179;54.350;10.102;2024-01-25T03:52:25;9.10;99.90
6293;DHT22;3179;54.350;10.102;2024-01-25T03:54:55;9.10;99.90
6293;DHT22;3179;54.350;10.102;2024-01-25T03:57:22;9.10;99.90
6293;DHT22;3179;54.350;10.102;2024-01-25T03:59:49;9.10;99.90
6293;DHT22;3179;54.350;10.102;2024-01-25T04:02:16;9.10;99.90
6293;DHT22;3179;54.350;10.102;2024-01-25T04:04:42;9.10;99.90
6293;DHT22;3179;54.350;10.102;2024-01-25T04:07:11;9.10;99.90
6293;DHT22;3179;54.350;10.102;2024-01-25T04:09:37;9.10;99.90
6293;DHT22;3179;54.350;10.102;2024-01-25T04:12:06;9.10;99.90
6293;DHT22;3179;54.350;10.102;2024-01-25T04:14:33;9.10;99.90
6293;DHT22;3179;54.350;10.102;2024-01-25T04:16:59;9.10;99.90
6293;DHT22;3179;54.350;10.102;2024-01-25T04:19:26;9.20;99.90
6293;DHT22;3179;54.350;10.102;2024-01-25T04:21:53;9.10;99.90
6293;DHT22;3179;54.350;10.102;2024-01-25T04:24:21;9.10;99.90
6293;DHT22;3179;54.350;10.102;2024-01-25T04:26:48;9.20;99.90
6293;DHT22;3179;54.350;10.102;2024-01-25T04:29:15;9.20;99.90
6293;DHT22;3179;54.350;10.102;2024-01-25T04:31:43;9.10;99.90
6293;DHT22;3179;54.350;10.102;2024-01-25T04:34:10;9.10;99.90
6293;DHT22;3179;54.350;10.102;2024-01-25T04:36:37;9.10;99.90
6293;DHT22;3179;54.350;10.102;2024-01-25T04:39:04;9.10;99.90
6293;DHT22;3179;54.350;10.102;2024-01-25T04:41:32;9.10;99.90
6293;DHT22;3179;54.350;10.102;2024-01-25T04:43:59;9.00;99.90
6293;DHT22;3179;54.350;10.102;2024-01-25T04:46:26;9.00;99.90
6293;DHT22;3179;54.350;10.102;2024-01-25T04:48:53;9.00;99.90
6293;DHT22;3179;54.350;10.102;2024-01-25T04:51:20;9.00;99.90
6293;DHT22;3179;54.350;10.102;2024-01-25T04:53:47;9.10;99.90
6293;DHT22;3179;54.350;10.102;2024-01-25T04:56:14;9.00;99.90
6293;DHT22;3179;54.350;10.102;2024-01-25T04:58:42;9.10;99.90
6293;DHT22;3179;54.350;10.102;2024-01-25T05:01:09;9.10;99.90
6293;DHT22;3179;54.350;10.102;2024-01-25T05:03:36;9.10;99.90
6293;DHT22;3179;54.350;10.102;2024-01-25T05:06:03;9.10;99.90
6293;DHT22;3179;54.350;10.102;2024-01-25T05:08:30;9.10;99.90
6293;DHT22;3179;54.350;10.102;2024-01-25T05:10:57;9.10;99.90
6293;DHT22;3179;54.350;10.102;2024-01-25T05:13:24;9.10;99.90
6293;DHT22;3179;54.350;10.102;2024-01-25T05:15:55;9.10;99.90
6293;DHT22;3179;54.350;10.102;2024-01-25T05:18:22;9.10;99.90
6293;DHT22;3179;54.350;10.102;2024-01-25T05:20:49;9.10;99.90
6293;DHT22;3179;54.350;10.102;2024-01-25T05:23:15;9.10;99.90
6293;DHT22;3179;54.350;10.102;2024-01-25T05:25:42;9.10;99.90
6293;DHT22;3179;54.350;10.102;2024-01-25T05:28:09;9.10;99.90
6293;DHT22;3179;54.350;10.102;2024-01-25T05:30:36;9.10;99.90
6293;DHT22;3179;54.350;10.102;2024-01-25T05:33:04;9.10;99.90
6293;DHT22;3179;54.350;10.102;2024-01-25T05:35:31;9.10;99.90
6293;DHT22;3179;54.350;10.102;2024-01-25T05:37:59;9.10;99.90
6293;DHT22;3179;54.350;10.102;2024-01-25T05:40:28;9.00;99.90
6293;DHT22;3179;54.350;10.102;2024-01-25T05:42:55;9.10;99.90
6293;DHT22;3179;54.350;10.102;2024-01-25T05:45:22;9.00;99.90
6293;DHT22;3179;54.350;10.102;2024-01-25T05:47:50;9.00;99.90
6293;DHT22;3179;54.350;10.102;2024-01-25T05:50:18;9.00;99.90
6293;DHT22;3179;54.350;10.102;2024-01-25T05:52:45;9.00;99.90
6293;DHT22;3179;54.350;10.102;2024-01-25T05:55:12;9.10;99.90
6293;DHT22;3179;54.350;10.102;2024-01-25T05:57:42;9.00;99.90
6293;DHT22;3179;54.350;10.102;2024-01-25T06:00:11;9.10;99.90
6293;DHT22;3179;54.350;10.102;2024-01-25T06:02:38;9.10;99.90
6293;DHT22;3179;54.350;10.102;2024-01-25T06:05:05;9.00;99.90
6293;DHT22;3179;54.350;10.102;2024-01-25T06:07:34;9.00;99.90
6293;DHT22;3179;54.350;10.102;2024-01-25T06:10:01;9.10;99.90
6293;DHT22;3179;54.350;10.102;2024-01-25T06:12:29;9.00;99.90
6293;DHT22;3179;54.350;10.102;2024-01-25T06:14:56;9.00;99.90
6293;DHT22;3179;54.350;10.102;2024-01-25T06:17:22;9.00;99.90
6293;DHT22;3179;54.350;10.102;2024-01-25T06:19:49;9.10;99.90
6293;DHT22;3179;54.350;10.102;2024-01-25T06:22:16;9.10;99.90
6293;DHT22;3179;54.350;10.102;2024-01-25T06:24:44;9.00;99.90
6293;DHT22;3179;54.350;10.102;2024-01-25T06:27:11;9.00;99.90
6293;DHT22;3179;54.350;10.102;2024-01-25T06:29:38;9.00;99.90
6293;DHT22;3179;54.350;10.102;2024-01-25T06:32:06;9.00;99.90
6293;DHT22;3179;54.350;10.102;2024-01-25T06:34:33;9.00;99.90
6293;DHT22;3179;54.350;10.102;2024-01-25T06:37:00;9.00;99.90
6293;DHT22;3179;54.350;10.102;2024-01-25T06:39:27;9.00;99.90
6293;DHT22;3179;54.350;10.102;2024-01-25T06:41:55;9.00;99.90
6293;DHT22;3179;54.350;10.102;2024-01-25T06:44:22;9.00;99.90
6293;DHT22;3179;54.350;10.102;2024-01-25T06:46:49;9.00;99.90
6293;DHT22;3179;54.350;10.102;2024-01-25T06:49:16;9.00;99.90
6293;DHT22;3179;54.350;10.102;2024-01-25T06:51:42;9.00;99.90
6293;DHT22;3179;54.350;10.102;2024-01-25T06:54:09;9.00;99.90
6293;DHT22;3179;54.350;10.102;2024-01-25T06:56:36;9.00;99.90
6293;DHT22;3179;54.350;10.102;2024-01-25T06:59:04;9.00;99.90
6293;DHT22;3179;54.350;10.102;2024-01-25T07:01:31;9.00;99.90
6293;DHT22;3179;54.350;10.102;2024-01-25T07:03:58;8.90;99.90
6293;DHT22;3179;54.350;10.102;2024-01-25T07:06:25;9.00;99.90
6293;DHT22;3179;54.350;10.102;2024-01-25T07:08:52;8.90;99.90
6293;DHT22;3179;54.350;10.102;2024-01-25T07:11:20;8.90;99.90
6293;DHT22;3179;54.350;10.102;2024-01-25T07:13:46;8.90;99.90
6293;DHT22;3179;54.350;10.102;2024-01-25T07:16:15;8.90;99.90
6293;DHT22;3179;54.350;10.102;2024-01-25T07:18:42;8.90;99.90
6293;DHT22;3179;54.350;10.102;2024-01-25T07:21:08;8.90;99.90
6293;DHT22;3179;54.350;10.102;2024-01-25T07:23:35;8.90;99.90
6293;DHT22;3179;54.350;10.102;2024-01-25T07:26:02;8.90;99.90
6293;DHT22;3179;54.350;10.102;2024-01-25T07:28:29;8.90;99.90
6293;DHT22;3179;54.350;10.102;2024-01-25T07:30:56;8.90;99.90
6293;DHT22;3179;54.350;10.102;2024-01-25T07:33:24;8.90;99.90
6293;DHT22;3179;54.350;10.102;2024-01-25T07:35:51;8.90;99.90
6293;DHT22;3179;54.350;10.102;2024-01-25T07:38:18;8.90;99.90
6293;DHT22;3179;54.350;10.102;2024-01-25T07:40:45;8.90;99.90
6293;DHT22;3179;54.350;10.102;2024-01-25T07:43:12;8.90;99.90
6293;DHT22;3179;54.350;10.102;2024-01-25T07:45:38;8.90;99.90
6293;DHT22;3179;54.350;10.102;2024-01-25T07:48:06;8.90;99.90
6293;DHT22;3179;54.350;10.102;2024-01-25T07:50:34;8.90;99.90
6293;DHT22;3179;54.350;10.102;2024-01-25T07:53:01;8.90;99.90
6293;DHT22;3179;54.350;10.102;2024-01-25T07:55:28;8.90;99.90
6293;DHT22;3179;54.350;10.102;2024-01-25T07:57:56;8.90;99.90
6293;DHT22;3179;54.350;10.102;2024-01-25T08:00:23;8.90;99.90
6293;DHT22;3179;54.350;10.102;2024-01-25T08:02:49;8.90;99.90
6293;DHT22;3179;54.350;10.102;2024-01-25T08:05:16;8.90;99.90
6293;DHT22;3179;54.350;10.102;2024-01-25T08:07:46;8.90;99.90
6293;DHT22;3179;54.350;10.102;2024-01-25T08:10:14;8.90;99.90
6293;DHT22;3179;54.350;10.102;2024-01-25T08:12:41;8.90;99.90
6293;DHT22;3179;54.350;10.102;2024-01-25T08:15:09;8.90;99.90
6293;DHT22;3179;54.350;10.102;2024-01-25T08:17:37;8.90;99.90
6293;DHT22;3179;54.350;10.102;2024-01-25T08:20:05;8.90;99.90
6293;DHT22;3179;54.350;10.102;2024-01-25T08:22:32;9.00;99.90
6293;DHT22;3179;54.350;10.102;2024-01-25T08:25:00;9.00;99.90
6293;DHT22;3179;54.350;10.102;2024-01-25T08:27:27;9.00;99.90
6293;DHT22;3179;54.350;10.102;2024-01-25T08:29:54;9.00;99.90
6293;DHT22;3179;54.350;10.102;2024-01-25T08:32:21;9.00;99.90
6293;DHT22;3179;54.350;10.102;2024-01-25T08:34:48;9.00;99.90
6293;DHT22;3179;54.350;10.102;2024-01-25T08:37:15;9.00;99.90
6293;DHT22;3179;54.350;10.102;2024-01-25T08:39:41;9.00;99.90
6293;DHT22;3179;54.350;10.102;2024-01-25T08:42:10;9.00;99.90
6293;DHT22;3179;54.350;10.102;2024-01-25T08:44:38;9.00;99.90
6293;DHT22;3179;54.350;10.102;2024-01-25T08:47:06;9.00;99.90
6293;DHT22;3179;54.350;10.102;2024-01-25T08:49:37;9.00;99.90
6293;DHT22;3179;54.350;10.102;2024-01-25T08:52:04;9.00;99.90
6293;DHT22;3179;54.350;10.102;2024-01-25T08:54:32;9.10;99.90
6293;DHT22;3179;54.350;10.102;2024-01-25T08:56:59;9.00;99.90
6293;DHT22;3179;54.350;10.102;2024-01-25T08:59:27;9.10;99.90
6293;DHT22;3179;54.350;10.102;2024-01-25T09:01:56;9.10;99.90
6293;DHT22;3179;54.350;10.102;2024-01-25T09:04:23;9.10;99.90
6293;DHT22;3179;54.350;10.102;2024-01-25T09:06:50;9.10;99.90
6293;DHT22;3179;54.350;10.102;2024-01-25T09:09:17;9.10;99.90
6293;DHT22;3179;54.350;10.102;2024-01-25T09:11:44;9.10;99.90
6293;DHT22;3179;54.350;10.102;2024-01-25T09:14:11;9.10;99.90
6293;DHT22;3179;54.350;10.102;2024-01-25T09:16:40;9.20;99.90
6293;DHT22;3179;54.350;10.102;2024-01-25T09:19:07;9.20;99.90
6293;DHT22;3179;54.350;10.102;2024-01-25T09:21:33;9.20;99.90
6293;DHT22;3179;54.350;10.102;2024-01-25T09:24:00;9.20;99.90
6293;DHT22;3179;54.350;10.102;2024-01-25T09:26:27;9.20;99.90
6293;DHT22;3179;54.350;10.102;2024-01-25T09:28:54;9.20;99.90
6293;DHT22;3179;54.350;10.102;2024-01-25T09:31:21;9.20;99.90
6293;DHT22;3179;54.350;10.102;2024-01-25T09:33:49;9.20;99.90
6293;DHT22;3179;54.350;10.102;2024-01-25T09:36:16;9.20;99.90
6293;DHT22;3179;54.350;10.102;2024-01-25T09:38:43;9.30;99.90
6293;DHT22;3179;54.350;10.102;2024-01-25T09:41:10;9.30;99.90
6293;DHT22;3179;54.350;10.102;2024-01-25T09:43:37;9.20;99.90
6293;DHT22;3179;54.350;10.102;2024-01-25T09:46:05;9.20;99.90
6293;DHT22;3179;54.350;10.102;2024-01-25T09:48:33;9.30;99.90
6293;DHT22;3179;54.350;10.102;2024-01-25T09:51:02;9.30;99.90
6293;DHT22;3179;54.350;10.102;2024-01-25T09:53:30;9.20;99.90
6293;DHT22;3179;54.350;10.102;2024-01-25T09:56:03;9.20;99.90
6293;DHT22;3179;54.350;10.102;2024-01-25T09:58:37;9.30;99.90
6293;DHT22;3179;54.350;10.102;2024-01-25T10:01:08;9.30;99.90
6293;DHT22;3179;54.350;10.102;2024-01-25T10:03:35;9.40;99.90
6293;DHT22;3179;54.350;10.102;2024-01-25T10:06:05;9.30;99.90
6293;DHT22;3179;54.350;10.102;2024-01-25T10:08:32;9.40;99.90
6293;DHT22;3179;54.350;10.102;2024-01-25T10:10:59;9.30;99.90
6293;DHT22;3179;54.350;10.102;2024-01-25T10:13:26;9.40;99.90
6293;DHT22;3179;54.350;10.102;2024-01-25T10:15:53;9.40;99.90
6293;DHT22;3179;54.350;10.102;2024-01-25T10:18:22;9.50;99.90
6293;DHT22;3179;54.350;10.102;2024-01-25T10:20:49;9.50;99.90
6293;DHT22;3179;54.350;10.102;2024-01-25T10:23:17;9.50;99.90
6293;DHT22;3179;54.350;10.102;2024-01-25T10:25:44;9.60;99.90
6293;DHT22;3179;54.350;10.102;2024-01-25T10:28:12;9.50;99.90
6293;DHT22;3179;54.350;10.102;2024-01-25T10:30:39;9.60;99.90
6293;DHT22;3179;54.350;10.102;2024-01-25T10:33:06;9.60;99.90
6293;DHT22;3179;54.350;10.102;2024-01-25T10:35:36;9.60;99.90
6293;DHT22;3179;54.350;10.102;2024-01-25T10:38:04;9.60;99.90
6293;DHT22;3179;54.350;10.102;2024-01-25T10:40:33;9.60;99.90
6293;DHT22;3179;54.350;10.102;2024-01-25T10:43:00;9.60;99.90
6293;DHT22;3179;54.350;10.102;2024-01-25T10:45:27;9.60;99.90
6293;DHT22;3179;54.350;10.102;2024-01-25T10:47:54;9.70;99.90
6293;DHT22;3179;54.350;10.102;2024-01-25T10:50:21;9.70;99.90
6293;DHT22;3179;54.350;10.102;2024-01-25T10:52:50;9.80;99.90
6293;DHT22;3179;54.350;10.102;2024-01-25T10:55:17;9.80;99.90
6293;DHT22;3179;54.350;10.102;2024-01-25T10:57:46;9.90;99.90
6293;DHT22;3179;54.350;10.102;2024-01-25T11:00:15;9.90;99.90
6293;DHT22;3179;54.350;10.102;2024-01-25T11:02:42;9.90;99.90
6293;DHT22;3179;54.350;10.102;2024-01-25T11:05:10;9.90;99.90
6293;DHT22;3179;54.350;10.102;2024-01-25T11:07:42;9.90;99.90
6293;DHT22;3179;54.350;10.102;2024-01-25T11:10:13;9.90;99.90
6293;DHT22;3179;54.350;10.102;2024-01-25T11:12:48;9.90;99.90
6293;DHT22;3179;54.350;10.102;2024-01-25T11:15:20;9.90;99.90
6293;DHT22;3179;54.350;10.102;2024-01-25T11:17:52;9.90;99.90
6293;DHT22;3179;54.350;10.102;2024-01-25T11:20:23;9.90;99.90
6293;DHT22;3179;54.350;10.102;2024-01-25T11:22:56;9.90;99.90
6293;DHT22;3179;54.350;10.102;2024-01-25T11:25:24;9.90;99.90
6293;DHT22;3179;54.350;10.102;2024-01-25T11:27:54;9.90;99.90
6293;DHT22;3179;54.350;10.102;2024-01-25T11:30:21;9.90;99.90
6293;DHT22;3179;54.350;10.102;2024-01-25T11:32:48;9.90;99.90
6293;DHT22;3179;54.350;10.102;2024-01-25T11:35:16;9.90;99.90
6293;DHT22;3179;54.350;10.102;2024-01-25T11:37:43;9.90;99.90
6293;DHT22;3179;54.350;10.102;2024-01-25T11:40:11;9.90;99.90
6293;DHT22;3179;54.350;10.102;2024-01-25T11:42:38;9.90;99.90
6293;DHT22;3179;54.350;10.102;2024-01-25T11:45:09;9.90;99.90
6293;DHT22;3179;54.350;10.102;2024-01-25T11:47:37;9.90;99.90
6293;DHT22;3179;54.350;10.102;2024-01-25T11:50:04;9.90;99.90
6293;DHT22;3179;54.350;10.102;2024-01-25T11:52:32;10.00;99.90
6293;DHT22;3179;54.350;10.102;2024-01-25T11:54:59;10.00;99.90
6293;DHT22;3179;54.350;10.102;2024-01-25T11:57:26;9.90;99.90
6293;DHT22;3179;54.350;10.102;2024-01-25T11:59:54;10.00;99.90
6293;DHT22;3179;54.350;10.102;2024-01-25T12:02:23;10.00;99.90
6293;DHT22;3179;54.350;10.102;2024-01-25T12:04:50;10.00;99.90
6293;DHT22;3179;54.350;10.102;2024-01-25T12:07:19;10.00;99.90
6293;DHT22;3179;54.350;10.102;2024-01-25T12:09:57;9.90;99.90
6293;DHT22;3179;54.350;10.102;2024-01-25T12:12:24;10.00;99.90
6293;DHT22;3179;54.350;10.102;2024-01-25T12:14:51;10.00;99.90
6293;DHT22;3179;54.350;10.102;2024-01-25T12:17:18;10.00;99.90
6293;DHT22;3179;54.350;10.102;2024-01-25T12:19:46;10.00;99.90
6293;DHT22;3179;54.350;10.102;2024-01-25T12:22:20;10.00;99.90
6293;DHT22;3179;54.350;10.102;2024-01-25T12:24:47;10.10;99.90
6293;DHT22;3179;54.350;10.102;2024-01-25T12:27:15;10.10;99.90
6293;DHT22;3179;54.350;10.102;2024-01-25T12:29:42;10.10;99.90
6293;DHT22;3179;54.350;10.102;2024-01-25T12:32:09;10.10;99.90
6293;DHT22;3179;54.350;10.102;2024-01-25T12:34:36;10.20;99.90
6293;DHT22;3179;54.350;10.102;2024-01-25T12:37:06;10.20;99.90
6293;DHT22;3179;54.350;10.102;2024-01-25T12:39:33;10.30;99.90
6293;DHT22;3179;54.350;10.102;2024-01-25T12:42:00;10.30;99.90
6293;DHT22;3179;54.350;10.102;2024-01-25T12:44:27;10.40;99.90
6293;DHT22;3179;54.350;10.102;2024-01-25T12:46:53;10.40;99.90
6293;DHT22;3179;54.350;10.102;2024-01-25T12:49:20;10.40;99.90
6293;DHT22;3179;54.350;10.102;2024-01-25T12:51:48;10.40;99.90
6293;DHT22;3179;54.350;10.102;2024-01-25T12:54:17;10.50;99.90
6293;DHT22;3179;54.350;10.102;2024-01-25T12:56:43;10.50;99.90
6293;DHT22;3179;54.350;10.102;2024-01-25T12:59:10;10.60;99.90
6293;DHT22;3179;54.350;10.102;2024-01-25T13:01:37;10.50;99.90
6293;DHT22;3179;54.350;10.102;2024-01-25T13:04:04;10.60;99.90
6293;DHT22;3179;54.350;10.102;2024-01-25T13:06:31;10.60;99.90
6293;DHT22;3179;54.350;10.102;2024-01-25T13:08:58;10.60;99.90
6293;DHT22;3179;54.350;10.102;2024-01-25T13:11:26;10.70;99.90
6293;DHT22;3179;54.350;10.102;2024-01-25T13:13:53;10.70;99.90
6293;DHT22;3179;54.350;10.102;2024-01-25T13:16:20;10.70;99.90
6293;DHT22;3179;54.350;10.102;2024-01-25T13:18:47;10.70;99.90
6293;DHT22;3179;54.350;10.102;2024-01-25T13:21:13;10.60;99.90
6293;DHT22;3179;54.350;10.102;2024-01-25T13:23:40;10.60;99.90
6293;DHT22;3179;54.350;10.102;2024-01-25T13:26:07;10.60;99.90
6293;DHT22;3179;54.350;10.102;2024-01-25T13:28:35;10.60;99.90
6293;DHT22;3179;54.350;10.102;2024-01-25T13:31:02;10.60;99.90
6293;DHT22;3179;54.350;10.102;2024-01-25T13:33:29;10.60;99.90
6293;DHT22;3179;54.350;10.102;2024-01-25T13:35:56;10.50;99.90
6293;DHT22;3179;54.350;10.102;2024-01-25T13:38:23;10.50;99.90
6293;DHT22;3179;54.350;10.102;2024-01-25T13:40:50;10.40;99.90
6293;DHT22;3179;54.350;10.102;2024-01-25T13:43:17;10.40;99.90
6293;DHT22;3179;54.350;10.102;2024-01-25T13:45:45;10.40;99.90
6293;DHT22;3179;54.350;10.102;2024-01-25T13:48:16;10.30;99.90
6293;DHT22;3179;54.350;10.102;2024-01-25T13:50:44;10.30;99.90
6293;DHT22;3179;54.350;10.102;2024-01-25T13:53:11;10.30;99.90
6293;DHT22;3179;54.350;10.102;2024-01-25T13:55:38;10.30;99.90
6293;DHT22;3179;54.350;10.102;2024-01-25T13:58:05;10.20;99.90
6293;DHT22;3179;54.350;10.102;2024-01-25T14:00:32;10.10;99.90
6293;DHT22;3179;54.350;10.102;2024-01-25T14:03:00;10.10;99.90
6293;DHT22;3179;54.350;10.102;2024-01-25T14:05:27;10.10;99.90
6293;DHT22;3179;54.350;10.102;2024-01-25T14:07:54;10.00;99.90
6293;DHT22;3179;54.350;10.102;2024-01-25T14:10:21;10.00;99.90
6293;DHT22;3179;54.350;10.102;2024-01-25T14:12:47;10.00;99.90
6293;DHT22;3179;54.350;10.102;2024-01-25T14:15:15;10.00;99.90
6293;DHT22;3179;54.350;10.102;2024-01-25T14:17:41;10.00;99.90
6293;DHT22;3179;54.350;10.102;2024-01-25T14:20:12;9.90;99.90
6293;DHT22;3179;54.350;10.102;2024-01-25T14:22:39;9.90;99.90
6293;DHT22;3179;54.350;10.102;2024-01-25T14:25:07;9.90;99.90
6293;DHT22;3179;54.350;10.102;2024-01-25T14:27:33;9.80;99.90
6293;DHT22;3179;54.350;10.102;2024-01-25T14:30:00;9.80;99.90
6293;DHT22;3179;54.350;10.102;2024-01-25T14:32:29;9.80;99.90
6293;DHT22;3179;54.350;10.102;2024-01-25T14:34:56;9.70;99.90
6293;DHT22;3179;54.350;10.102;2024-01-25T14:37:24;9.70;99.90
6293;DHT22;3179;54.350;10.102;2024-01-25T14:39:51;9.70;99.90
6293;DHT22;3179;54.350;10.102;2024-01-25T14:42:19;9.70;99.90
6293;DHT22;3179;54.350;10.102;2024-01-25T14:44:46;9.70;99.90
6293;DHT22;3179;54.350;10.102;2024-01-25T14:47:13;9.60;99.90
6293;DHT22;3179;54.350;10.102;2024-01-25T14:49:45;9.60;99.90
6293;DHT22;3179;54.350;10.102;2024-01-25T14:52:12;9.60;99.90
6293;DHT22;3179;54.350;10.102;2024-01-25T14:54:40;9.60;99.90
6293;DHT22;3179;54.350;10.102;2024-01-25T14:57:07;9.60;99.90
6293;DHT22;3179;54.350;10.102;2024-01-25T14:59:35;9.60;99.90
6293;DHT22;3179;54.350;10.102;2024-01-25T15:02:02;9.60;99.90
6293;DHT22;3179;54.350;10.102;2024-01-25T15:04:29;9.60;99.90
6293;DHT22;3179;54.350;10.102;2024-01-25T15:06:56;9.60;99.90
6293;DHT22;3179;54.350;10.102;2024-01-25T15:09:23;9.50;99.90
6293;DHT22;3179;54.350;10.102;2024-01-25T15:11:51;9.60;99.90
6293;DHT22;3179;54.350;10.102;2024-01-25T15:14:18;9.50;99.90
6293;DHT22;3179;54.350;10.102;2024-01-25T15:16:45;9.50;99.90
6293;DHT22;3179;54.350;10.102;2024-01-25T15:19:13;9.50;99.90
6293;DHT22;3179;54.350;10.102;2024-01-25T15:21:40;9.50;99.90
6293;DHT22;3179;54.350;10.102;2024-01-25T15:24:07;9.50;99.90
6293;DHT22;3179;54.350;10.102;2024-01-25T15:26:34;9.50;99.90
6293;DHT22;3179;54.350;10.102;2024-01-25T15:29:03;9.50;99.90
6293;DHT22;3179;54.350;10.102;2024-01-25T15:31:30;9.50;99.90
6293;DHT22;3179;54.350;10.102;2024-01-25T15:33:57;9.50;99.90
6293;DHT22;3179;54.350;10.102;2024-01-25T15:36:24;9.40;99.90
6293;DHT22;3179;54.350;10.102;2024-01-25T15:38:51;9.40;99.90
6293;DHT22;3179;54.350;10.102;2024-01-25T15:41:17;9.30;99.90
6293;DHT22;3179;54.350;10.102;2024-01-25T15:43:47;9.30;99.90
6293;DHT22;3179;54.350;10.102;2024-01-25T15:46:16;9.30;99.90
6293;DHT22;3179;54.350;10.102;2024-01-25T15:48:43;9.30;99.90
6293;DHT22;3179;54.350;10.102;2024-01-25T15:51:11;9.20;99.90
6293;DHT22;3179;54.350;10.102;2024-01-25T15:53:39;9.30;99.90
6293;DHT22;3179;54.350;10.102;2024-01-25T15:56:06;9.30;99.90
6293;DHT22;3179;54.350;10.102;2024-01-25T15:58:33;9.30;99.90
6293;DHT22;3179;54.350;10.102;2024-01-25T16:01:00;9.20;99.90